Terminal Aerodrome Forecast
Issued by NWS Wilmington, NC

Home | Current Version | Previous Version | Text Only | Print | Product List | Glossary On
Versions: 1 2 3 4 5 6 7 8 9 10 11 12 13 14
000
FTUS42 KILM 011700
TAFFLO
TAF
KFLO 011723Z 0118/0218 19008KT P6SM FEW040 SCT120
     FM020000 16011KT P6SM VCSH SCT030 OVC050
     FM020300 19014G24KT P6SM -RA SCT025 OVC050
     FM020800 21018G25KT 4SM -RA BR FEW007 OVC015
     FM021400 25020G30KT P6SM -RA BKN025 OVC050=

USA.gov is the U.S. government's official web portal to all federal, state and local government web resources and services.